Time;durP1;ratioP1;P1;durP2;ratioP2;P2;SDS_P1;SDS_P2;PMS_P1;PMS_P2;Temp;Humidity;BMP_temperature;BMP_pressure;BME280_temperature;BME280_humidity;BME280_pressure;Samples;Min_cycle;Max_cycle;Signal;HPM_P1;HPM_P2
2021/08/20 00:01:20;;;;;;;6.47;5.20;;;17.30;99.90;;;;;;4987278;28;20275;-81
2021/08/20 00:03:45;;;;;;;6.00;4.75;;;17.30;99.90;;;;;;4986345;28;20658;-81
2021/08/20 00:06:11;;;;;;;7.07;5.18;;;17.20;99.90;;;;;;4987673;28;20184;-81
2021/08/20 00:08:37;;;;;;;6.13;4.93;;;17.20;99.90;;;;;;4986253;28;20238;-81
2021/08/20 00:11:04;;;;;;;7.00;5.38;;;17.10;99.90;;;;;;4986556;28;20200;-81
2021/08/20 00:13:30;;;;;;;6.75;4.75;;;17.10;99.90;;;;;;4986852;28;20180;-81
2021/08/20 00:15:56;;;;;;;7.20;5.25;;;17.10;99.90;;;;;;4986343;28;20666;-81
2021/08/20 00:18:23;;;;;;;6.03;4.80;;;17.20;99.90;;;;;;4987171;28;20207;-81
2021/08/20 00:20:49;;;;;;;6.35;5.03;;;17.20;99.90;;;;;;4986842;28;20224;-83
2021/08/20 00:23:15;;;;;;;6.82;5.00;;;17.20;99.90;;;;;;4989422;28;20226;-81
2021/08/20 00:25:41;;;;;;;6.05;4.68;;;17.10;99.90;;;;;;4987962;28;20187;-81
2021/08/20 00:28:07;;;;;;;7.72;5.50;;;17.10;99.90;;;;;;5003101;28;20212;-81
2021/08/20 00:30:33;;;;;;;7.13;5.85;;;17.00;99.90;;;;;;4987654;28;20323;-81
2021/08/20 00:32:59;;;;;;;6.90;5.60;;;17.00;99.90;;;;;;4986958;28;20639;-81
2021/08/20 00:35:24;;;;;;;12.15;6.10;;;16.90;99.90;;;;;;4987606;28;20187;-81
2021/08/20 00:37:50;;;;;;;8.32;6.43;;;17.00;99.90;;;;;;4986793;28;20196;-81
2021/08/20 00:40:16;;;;;;;8.95;6.32;;;17.10;99.90;;;;;;4988995;28;20271;-82
2021/08/20 00:42:42;;;;;;;8.05;6.38;;;17.10;99.90;;;;;;4987337;28;20234;-81
2021/08/20 00:45:08;;;;;;;7.85;5.78;;;17.00;99.90;;;;;;4989165;28;20184;-81
2021/08/20 00:47:33;;;;;;;8.00;5.25;;;17.00;99.90;;;;;;4988512;28;20175;-82
2021/08/20 00:50:03;;;;;;;8.68;6.40;;;17.00;99.90;;;;;;4987523;28;21073;-82
2021/08/20 00:52:28;;;;;;;8.43;6.57;;;17.00;99.90;;;;;;4987321;28;20996;-81
2021/08/20 00:54:54;;;;;;;8.27;5.95;;;17.00;99.90;;;;;;4986976;28;20180;-81
2021/08/20 00:57:21;;;;;;;8.65;5.85;;;16.90;99.90;;;;;;5002658;28;20197;-81
2021/08/20 00:59:47;;;;;;;9.05;6.05;;;16.90;99.90;;;;;;4987959;28;20232;-81
2021/08/20 01:02:13;;;;;;;7.45;6.03;;;16.80;99.90;;;;;;4985958;28;20301;-81
2021/08/20 01:04:39;;;;;;;8.95;7.03;;;16.60;99.90;;;;;;4986351;28;20184;-81
2021/08/20 01:07:06;;;;;;;8.52;6.40;;;16.60;99.90;;;;;;4987094;28;20195;-81
2021/08/20 01:09:31;;;;;;;8.93;6.53;;;16.50;99.90;;;;;;4979937;28;20212;-82
2021/08/20 01:11:57;;;;;;;10.48;7.45;;;16.50;99.90;;;;;;4987911;28;20218;-81
2021/08/20 01:14:30;;;;;;;10.95;7.45;;;16.50;99.90;;;;;;4986172;28;21138;-81
2021/08/20 01:16:56;;;;;;;10.15;7.88;;;16.40;99.90;;;;;;4986169;28;20176;-81
2021/08/20 01:19:22;;;;;;;8.85;7.25;;;16.30;99.90;;;;;;4986385;28;20231;-81
2021/08/20 01:21:48;;;;;;;10.15;7.72;;;16.10;99.90;;;;;;4986063;28;20188;-81
2021/08/20 01:24:14;;;;;;;10.02;6.97;;;16.10;99.90;;;;;;4985974;28;20195;-81
2021/08/20 01:26:39;;;;;;;9.75;7.95;;;16.20;99.90;;;;;;4989666;28;20192;-81
2021/08/20 01:29:05;;;;;;;11.13;8.05;;;16.10;99.90;;;;;;4989697;28;20220;-81
2021/08/20 01:31:31;;;;;;;9.63;7.57;;;16.10;99.90;;;;;;4990340;28;20711;-81
2021/08/20 01:33:57;;;;;;;9.65;7.95;;;16.20;99.90;;;;;;4989870;28;20259;-81
2021/08/20 01:36:22;;;;;;;9.68;7.53;;;16.20;99.90;;;;;;4991888;28;20936;-81
2021/08/20 01:38:51;;;;;;;10.20;7.72;;;16.20;99.90;;;;;;4989370;28;20305;-81
2021/08/20 01:41:18;;;;;;;11.13;7.82;;;16.20;99.90;;;;;;4991266;28;20379;-82
2021/08/20 01:43:44;;;;;;;11.75;8.43;;;16.20;99.90;;;;;;4990229;28;20290;-81
2021/08/20 01:46:10;;;;;;;9.43;7.22;;;16.20;99.90;;;;;;4989861;28;20275;-81
2021/08/20 01:48:42;;;;;;;10.73;7.85;;;16.20;99.90;;;;;;4989537;28;20239;-81
2021/08/20 01:51:07;;;;;;;11.27;8.70;;;16.30;99.90;;;;;;5005512;28;21195;-81
2021/08/20 01:53:33;;;;;;;14.05;9.00;;;16.30;99.90;;;;;;4989440;28;20184;-81
2021/08/20 01:55:58;;;;;;;9.05;7.45;;;16.30;99.90;;;;;;4989162;28;20646;-80
2021/08/20 01:58:24;;;;;;;10.63;8.55;;;16.30;99.90;;;;;;4989324;28;20543;-81
2021/08/20 02:00:49;;;;;;;11.05;8.57;;;16.40;99.90;;;;;;4989921;28;20208;-81
2021/08/20 02:03:15;;;;;;;9.70;7.78;;;16.50;99.90;;;;;;4989463;28;20184;-81
2021/08/20 02:05:40;;;;;;;9.55;7.70;;;16.50;99.90;;;;;;4989562;28;20200;-81
2021/08/20 02:08:09;;;;;;;10.55;8.00;;;16.50;99.90;;;;;;4989070;28;20243;-82
2021/08/20 02:10:35;;;;;;;11.15;8.15;;;16.60;99.90;;;;;;4990142;28;20204;-81
2021/08/20 02:13:01;;;;;;;13.23;8.75;;;16.50;99.90;;;;;;4988190;28;20187;-81
2021/08/20 02:15:26;;;;;;;11.13;8.48;;;16.50;99.90;;;;;;5004841;28;20283;-81
2021/08/20 02:17:52;;;;;;;11.15;8.48;;;16.50;99.90;;;;;;4988088;28;20208;-80
2021/08/20 02:20:18;;;;;;;10.57;7.85;;;16.50;99.90;;;;;;4988621;28;20204;-81
2021/08/20 02:22:43;;;;;;;10.30;7.05;;;16.60;99.90;;;;;;4989864;28;20200;-81
2021/08/20 02:25:12;;;;;;;10.20;7.55;;;16.60;99.90;;;;;;4987918;28;20192;-81
2021/08/20 02:27:38;;;;;;;10.05;7.70;;;16.60;99.90;;;;;;4988299;28;20189;-81
2021/08/20 02:30:04;;;;;;;12.25;7.72;;;16.60;99.90;;;;;;4988530;28;20200;-81
2021/08/20 02:32:30;;;;;;;9.73;7.75;;;16.60;99.90;;;;;;4988445;28;20199;-81
2021/08/20 02:34:56;;;;;;;9.70;7.43;;;16.60;99.90;;;;;;4989988;28;20188;-81
2021/08/20 02:37:21;;;;;;;10.60;8.30;;;16.50;99.90;;;;;;4989229;28;20188;-81
2021/08/20 02:39:47;;;;;;;10.85;7.55;;;16.50;99.90;;;;;;4988335;28;20184;-80
2021/08/20 02:42:13;;;;;;;10.02;7.68;;;16.50;99.90;;;;;;4988825;28;21004;-81
2021/08/20 02:44:38;;;;;;;9.15;6.90;;;16.60;99.90;;;;;;4988164;28;20184;-81
2021/08/20 02:47:04;;;;;;;8.93;7.15;;;16.60;99.90;;;;;;4987714;28;20216;-81
2021/08/20 02:49:30;;;;;;;10.25;7.40;;;16.60;99.90;;;;;;4987984;28;20262;-81
2021/08/20 02:51:55;;;;;;;9.32;7.53;;;16.50;99.90;;;;;;4996625;28;20582;-82
2021/08/20 02:54:21;;;;;;;8.93;7.07;;;16.60;99.90;;;;;;4987303;28;20208;-81
2021/08/20 02:56:46;;;;;;;9.38;7.57;;;16.60;99.90;;;;;;4987399;28;20188;-81
2021/08/20 02:59:12;;;;;;;10.07;6.90;;;16.50;99.90;;;;;;4987374;28;20309;-81
2021/08/20 03:01:37;;;;;;;9.63;6.78;;;16.50;99.90;;;;;;4987519;28;20271;-81
2021/08/20 03:04:03;;;;;;;10.05;7.15;;;16.50;99.90;;;;;;4988506;28;20188;-81
2021/08/20 03:06:29;;;;;;;10.48;7.60;;;16.50;99.90;;;;;;4986958;28;20196;-80
2021/08/20 03:08:56;;;;;;;11.88;8.20;;;16.50;99.90;;;;;;4987303;28;20254;-81
2021/08/20 03:11:21;;;;;;;9.55;6.95;;;16.40;99.90;;;;;;4987188;28;20518;-81
2021/08/20 03:13:47;;;;;;;11.20;7.50;;;16.50;99.90;;;;;;4986946;28;20184;-81
2021/08/20 03:16:12;;;;;;;11.50;7.82;;;16.50;99.90;;;;;;4987262;28;20577;-82
2021/08/20 03:18:38;;;;;;;9.95;7.55;;;16.40;99.90;;;;;;4987156;28;20212;-81
2021/08/20 03:21:04;;;;;;;10.38;7.85;;;16.40;99.90;;;;;;4988665;28;20250;-81
2021/08/20 03:23:29;;;;;;;11.25;8.40;;;16.50;99.90;;;;;;4987215;28;20718;-81
2021/08/20 03:25:55;;;;;;;13.82;8.90;;;16.30;99.90;;;;;;4987725;28;20206;-82
2021/08/20 03:28:20;;;;;;;13.68;9.23;;;16.30;99.90;;;;;;4988967;28;20211;-81
2021/08/20 03:30:46;;;;;;;13.30;9.18;;;16.20;99.90;;;;;;4987993;28;20291;-81
2021/08/20 03:33:12;;;;;;;13.13;9.90;;;16.20;99.90;;;;;;4987122;28;20606;-81
2021/08/20 03:35:38;;;;;;;13.30;9.73;;;16.30;99.90;;;;;;4987538;28;20184;-81
2021/08/20 03:38:03;;;;;;;12.35;9.38;;;16.30;99.90;;;;;;4987368;28;20218;-81
2021/08/20 03:40:29;;;;;;;12.88;9.60;;;16.20;99.90;;;;;;4989245;28;20215;-81
2021/08/20 03:42:56;;;;;;;15.15;9.82;;;16.20;99.90;;;;;;4987495;28;20188;-81
2021/08/20 03:45:22;;;;;;;16.40;9.90;;;16.10;99.90;;;;;;5003365;28;20271;-81
2021/08/20 03:47:48;;;;;;;12.52;9.23;;;16.10;99.90;;;;;;4986783;28;20208;-81
2021/08/20 03:50:14;;;;;;;12.80;8.45;;;16.10;99.90;;;;;;4987638;28;20203;-81
2021/08/20 03:52:40;;;;;;;12.35;8.48;;;16.10;99.90;;;;;;4987103;28;20219;-81
2021/08/20 03:55:06;;;;;;;13.40;9.35;;;16.00;99.90;;;;;;4987400;28;20204;-81
2021/08/20 03:57:31;;;;;;;14.35;9.55;;;16.00;99.90;;;;;;4988773;28;20963;-81
2021/08/20 03:59:57;;;;;;;15.30;10.00;;;16.00;99.90;;;;;;4987438;28;20184;-81
2021/08/20 04:02:23;;;;;;;15.23;9.57;;;16.10;99.90;;;;;;4986632;28;20533;-82
2021/08/20 04:04:49;;;;;;;13.18;8.77;;;16.00;99.90;;;;;;4988935;28;20239;-82
2021/08/20 04:07:19;;;;;;;15.02;9.77;;;16.00;99.90;;;;;;4988184;28;20211;-81
2021/08/20 04:09:45;;;;;;;13.18;8.70;;;16.00;99.90;;;;;;4986960;28;20199;-82
2021/08/20 04:12:10;;;;;;;11.60;8.55;;;16.00;99.90;;;;;;4988152;28;20207;-82
2021/08/20 04:14:36;;;;;;;12.55;8.02;;;16.00;99.90;;;;;;4988098;28;20185;-81
2021/08/20 04:17:02;;;;;;;12.50;8.65;;;16.10;99.90;;;;;;4986492;28;20219;-81
2021/08/20 04:19:27;;;;;;;12.18;8.43;;;16.10;99.90;;;;;;4988373;28;20293;-81
2021/08/20 04:21:53;;;;;;;11.98;9.10;;;16.10;99.90;;;;;;4988174;28;20191;-81
2021/08/20 04:24:19;;;;;;;11.02;7.72;;;16.10;99.90;;;;;;4988298;28;20809;-81
2021/08/20 04:26:45;;;;;;;9.88;7.30;;;16.20;99.90;;;;;;5003399;28;20176;-82
2021/08/20 04:29:11;;;;;;;10.20;7.57;;;16.10;99.90;;;;;;4988484;28;20204;-81
2021/08/20 04:31:37;;;;;;;9.85;7.05;;;16.10;99.90;;;;;;4995571;28;20713;-81
2021/08/20 04:34:03;;;;;;;10.52;7.07;;;16.10;99.90;;;;;;4986602;28;20198;-81
2021/08/20 04:36:28;;;;;;;9.32;7.00;;;16.20;99.90;;;;;;4988078;28;20180;-81
2021/08/20 04:38:54;;;;;;;8.50;6.40;;;16.20;99.90;;;;;;4986671;28;20220;-81
2021/08/20 04:41:19;;;;;;;8.80;6.28;;;16.20;99.90;;;;;;4986986;28;20217;-82
2021/08/20 04:43:45;;;;;;;7.85;6.18;;;16.20;99.90;;;;;;4987917;28;20246;-83
2021/08/20 04:46:11;;;;;;;8.30;6.20;;;16.20;99.90;;;;;;4987523;28;20195;-81
2021/08/20 04:48:36;;;;;;;9.00;6.82;;;16.20;99.90;;;;;;4986775;28;20710;-81
2021/08/20 04:51:02;;;;;;;8.30;5.82;;;16.20;99.90;;;;;;4987271;28;20262;-82
2021/08/20 04:53:30;;;;;;;10.07;6.18;;;16.20;99.90;;;;;;4986402;28;20192;-81
2021/08/20 04:55:57;;;;;;;8.00;6.28;;;16.30;99.90;;;;;;4988252;28;20553;-81
2021/08/20 04:58:23;;;;;;;8.80;6.20;;;16.40;99.90;;;;;;4986457;28;20274;-80
2021/08/20 05:00:49;;;;;;;9.48;6.75;;;16.30;99.90;;;;;;4982108;28;20199;-81
2021/08/20 05:03:15;;;;;;;8.88;5.55;;;16.30;99.90;;;;;;4991956;28;20251;-82
2021/08/20 05:05:42;;;;;;;8.20;6.38;;;16.30;99.90;;;;;;4992147;28;20184;-81
2021/08/20 05:08:08;;;;;;;9.27;5.72;;;16.40;99.90;;;;;;4991047;28;20215;-81
2021/08/20 05:10:33;;;;;;;8.20;5.72;;;16.40;99.90;;;;;;4991090;28;20628;-81
2021/08/20 05:12:59;;;;;;;6.65;4.93;;;16.50;99.90;;;;;;4990242;28;20192;-81
2021/08/20 05:15:27;;;;;;;7.75;5.30;;;16.50;99.90;;;;;;4989831;28;20180;-81
2021/08/20 05:17:53;;;;;;;8.50;5.88;;;16.50;99.90;;;;;;4983362;28;20208;-81
2021/08/20 05:20:19;;;;;;;7.75;5.55;;;16.60;99.90;;;;;;4991103;28;20748;-81
2021/08/20 05:22:45;;;;;;;9.73;5.63;;;16.60;99.90;;;;;;4991486;28;20187;-81
2021/08/20 05:25:11;;;;;;;10.20;5.82;;;16.70;99.90;;;;;;4990938;28;20184;-81
2021/08/20 05:27:37;;;;;;;6.38;4.82;;;16.70;99.90;;;;;;4991098;28;20263;-81
2021/08/20 05:30:03;;;;;;;7.88;5.82;;;16.70;99.90;;;;;;4990148;28;20176;-81
2021/08/20 05:32:29;;;;;;;8.82;6.43;;;16.70;99.90;;;;;;4989909;28;20216;-82
2021/08/20 05:34:54;;;;;;;7.50;5.60;;;16.70;99.90;;;;;;4989706;28;20176;-81
2021/08/20 05:37:20;;;;;;;8.13;5.30;;;16.70;99.90;;;;;;4989949;28;20658;-82
2021/08/20 05:39:45;;;;;;;7.47;4.90;;;16.80;99.90;;;;;;4989521;28;20223;-82
2021/08/20 05:42:11;;;;;;;9.43;5.47;;;16.70;99.90;;;;;;4989903;28;20188;-81
2021/08/20 05:44:36;;;;;;;7.28;5.40;;;16.70;99.90;;;;;;4989281;28;20195;-81
2021/08/20 05:47:02;;;;;;;8.73;5.63;;;16.70;99.90;;;;;;4989142;28;20203;-81
2021/08/20 05:49:28;;;;;;;8.13;6.05;;;16.80;99.90;;;;;;4990838;28;20203;-81
2021/08/20 05:51:53;;;;;;;8.43;5.13;;;16.80;99.90;;;;;;4988670;28;20204;-82
2021/08/20 05:54:20;;;;;;;7.68;5.38;;;16.80;99.90;;;;;;4990163;28;20203;-81
2021/08/20 05:56:46;;;;;;;7.40;5.30;;;16.80;99.90;;;;;;4990687;28;20172;-81
2021/08/20 05:59:12;;;;;;;8.32;5.90;;;16.80;99.90;;;;;;4990040;28;20211;-81
2021/08/20 06:01:37;;;;;;;7.35;4.93;;;16.90;99.90;;;;;;4990092;28;20188;-81
2021/08/20 06:04:04;;;;;;;9.13;5.82;;;16.80;99.90;;;;;;4988312;28;20192;-81
2021/08/20 06:06:29;;;;;;;6.25;4.43;;;16.90;99.90;;;;;;4989117;28;20192;-81
2021/08/20 06:08:55;;;;;;;7.50;5.43;;;16.90;99.90;;;;;;4988520;28;20282;-81
2021/08/20 06:11:21;;;;;;;7.35;5.35;;;16.90;99.90;;;;;;4988341;28;20296;-81
2021/08/20 06:13:49;;;;;;;7.45;4.95;;;16.90;99.90;;;;;;4988090;28;20610;-81
2021/08/20 06:16:15;;;;;;;6.80;5.13;;;16.90;99.90;;;;;;4988156;28;20199;-81
2021/08/20 06:18:41;;;;;;;9.30;5.65;;;17.00;99.90;;;;;;4989198;28;20196;-81
2021/08/20 06:21:08;;;;;;;9.18;4.50;;;17.10;99.90;;;;;;4987600;28;20203;-82
2021/08/20 06:23:33;;;;;;;7.20;5.47;;;17.00;99.90;;;;;;4987897;28;20191;-81
2021/08/20 06:25:59;;;;;;;7.78;5.53;;;17.10;99.90;;;;;;4988857;28;20180;-81
2021/08/20 06:28:25;;;;;;;7.55;5.65;;;17.00;99.90;;;;;;4988931;28;20805;-81
2021/08/20 06:30:51;;;;;;;6.78;4.95;;;17.00;99.90;;;;;;4988875;28;20212;-81
2021/08/20 06:33:17;;;;;;;7.65;5.38;;;17.10;99.90;;;;;;4990161;28;20184;-81
2021/08/20 06:35:43;;;;;;;6.68;5.35;;;17.10;99.90;;;;;;4989862;28;20192;-81
2021/08/20 06:38:09;;;;;;;7.85;5.32;;;17.20;99.90;;;;;;4989592;28;20218;-80
2021/08/20 06:40:38;;;;;;;6.38;5.10;;;17.40;99.90;;;;;;4990090;28;20275;-78
2021/08/20 06:43:03;;;;;;;7.35;5.43;;;17.50;99.90;;;;;;4988438;28;20520;-79
2021/08/20 06:45:33;;;;;;;7.47;5.32;;;17.60;99.90;;;;;;4988358;28;20188;-79
2021/08/20 06:47:58;;;;;;;7.55;5.28;;;17.70;99.90;;;;;;4987825;28;20310;-79
2021/08/20 06:50:24;;;;;;;8.55;5.13;;;17.70;99.90;;;;;;4988254;28;20825;-79
2021/08/20 06:52:49;;;;;;;6.55;4.75;;;17.80;99.90;;;;;;4981336;28;20290;-79
2021/08/20 06:55:15;;;;;;;5.90;4.72;;;18.00;99.90;;;;;;4988367;28;20176;-79
2021/08/20 06:57:40;;;;;;;6.55;4.70;;;18.10;99.90;;;;;;5004594;28;20184;-79
2021/08/20 07:00:07;;;;;;;6.85;5.30;;;18.20;99.90;;;;;;4988075;28;20176;-78
2021/08/20 07:02:44;;;;;;;5.50;4.28;;;18.20;99.90;;;;;;4988042;28;20343;-79
2021/08/20 07:05:11;;;;;;;6.93;5.20;;;18.30;99.90;;;;;;4987468;28;21216;-78
2021/08/20 07:07:36;;;;;;;5.43;4.25;;;18.70;99.90;;;;;;4987048;28;20223;-78
2021/08/20 07:10:04;;;;;;;5.68;4.40;;;19.00;99.90;;;;;;4986330;28;20216;-79
2021/08/20 07:12:30;;;;;;;4.68;3.53;;;19.00;99.90;;;;;;4985086;28;20587;-79
2021/08/20 07:14:55;;;;;;;6.00;4.07;;;19.20;99.90;;;;;;4985047;28;20740;-79
2021/08/20 07:17:21;;;;;;;5.93;4.13;;;19.20;99.90;;;;;;4985070;28;20736;-79
2021/08/20 07:19:46;;;;;;;4.97;3.85;;;19.40;99.90;;;;;;4984441;28;20773;-79
2021/08/20 07:22:12;;;;;;;5.05;4.00;;;19.60;99.90;;;;;;4983709;28;21122;-79
2021/08/20 07:24:38;;;;;;;7.60;3.55;;;19.80;99.90;;;;;;4984048;28;20245;-79
2021/08/20 07:27:03;;;;;;;6.15;4.38;;;19.90;99.90;;;;;;4986296;28;20192;-78
2021/08/20 07:29:29;;;;;;;4.70;3.88;;;19.90;99.90;;;;;;4986015;28;20208;-79
2021/08/20 07:31:55;;;;;;;5.40;4.32;;;19.70;99.90;;;;;;4984098;28;20204;-79
2021/08/20 07:34:20;;;;;;;5.90;4.32;;;19.60;99.90;;;;;;4984013;28;20575;-79
2021/08/20 07:36:46;;;;;;;5.32;4.30;;;19.50;99.90;;;;;;4984611;28;20672;-80
2021/08/20 07:39:11;;;;;;;6.35;4.45;;;19.40;99.90;;;;;;4985369;28;20200;-79
2021/08/20 07:41:37;;;;;;;6.22;4.18;;;19.30;99.90;;;;;;4983519;28;20347;-78
2021/08/20 07:44:02;;;;;;;5.85;4.65;;;19.20;99.90;;;;;;4983279;28;20224;-79
2021/08/20 07:46:28;;;;;;;7.50;5.03;;;19.10;99.90;;;;;;4983793;28;20574;-79
2021/08/20 07:48:54;;;;;;;8.65;5.30;;;19.20;99.90;;;;;;4981966;28;20223;-80
2021/08/20 07:51:19;;;;;;;7.93;5.55;;;19.20;99.90;;;;;;4978600;28;20694;-79
2021/08/20 07:53:45;;;;;;;6.85;5.43;;;19.30;99.90;;;;;;4980316;28;20674;-78
2021/08/20 07:56:10;;;;;;;10.52;7.18;;;19.50;99.90;;;;;;4982956;28;20257;-79
2021/08/20 07:58:36;;;;;;;9.18;6.65;;;19.60;99.90;;;;;;4982660;28;20204;-79
2021/08/20 08:01:01;;;;;;;8.57;6.57;;;19.70;99.90;;;;;;4981977;28;20670;-78
2021/08/20 08:03:28;;;;;;;8.77;6.22;;;20.00;99.90;;;;;;4982508;28;20652;-79
2021/08/20 08:05:54;;;;;;;9.27;6.47;;;20.20;99.90;;;;;;4983625;28;20559;-79
2021/08/20 08:08:19;;;;;;;8.40;6.05;;;20.40;99.90;;;;;;4983013;28;20808;-79
2021/08/20 08:10:45;;;;;;;9.48;6.80;;;20.50;99.90;;;;;;4985063;28;20211;-80
2021/08/20 08:13:11;;;;;;;8.30;6.65;;;20.40;99.90;;;;;;4984251;28;20635;-78
2021/08/20 08:15:36;;;;;;;8.43;6.38;;;20.40;99.90;;;;;;4983970;28;20192;-79
2021/08/20 08:18:02;;;;;;;8.35;6.20;;;20.50;99.90;;;;;;4983579;28;20618;-79
2021/08/20 08:20:27;;;;;;;9.13;7.22;;;20.60;99.90;;;;;;4983536;28;20208;-79
2021/08/20 08:22:53;;;;;;;8.13;6.97;;;20.50;99.90;;;;;;4982167;28;20184;-80
2021/08/20 08:25:20;;;;;;;8.18;6.28;;;20.30;99.90;;;;;;4984492;28;20267;-79
2021/08/20 08:27:57;;;;;;;9.02;7.00;;;20.60;99.90;;;;;;4982636;28;20694;-78
2021/08/20 08:30:26;;;;;;;7.82;6.72;;;20.80;99.90;;;;;;4983030;28;20642;-79
2021/08/20 08:32:51;;;;;;;6.68;5.95;;;21.00;99.90;;;;;;4983600;28;20181;-79
2021/08/20 08:35:17;;;;;;;8.07;5.90;;;21.30;99.90;;;;;;4983339;28;20720;-79
2021/08/20 08:37:43;;;;;;;7.75;5.97;;;21.60;99.90;;;;;;4983521;28;20204;-79
2021/08/20 08:40:10;;;;;;;6.88;5.35;;;21.80;99.90;;;;;;4983185;28;20184;-78
2021/08/20 08:42:36;;;;;;;6.32;5.20;;;21.80;99.90;;;;;;4983730;28;20181;-78
2021/08/20 08:45:03;;;;;;;9.40;5.95;;;21.60;99.90;;;;;;4983066;28;20190;-79
2021/08/20 08:47:33;;;;;;;6.00;4.80;;;21.50;99.90;;;;;;4983435;28;20192;-79
2021/08/20 08:50:01;;;;;;;6.43;4.72;;;21.60;99.90;;;;;;4983178;28;20184;-78
2021/08/20 08:52:26;;;;;;;7.00;5.00;;;21.50;99.90;;;;;;4979328;28;20892;-78
2021/08/20 08:54:52;;;;;;;6.13;4.45;;;21.50;99.90;;;;;;4982487;28;20242;-79
2021/08/20 08:57:18;;;;;;;4.70;4.15;;;21.20;99.90;;;;;;4983141;28;20605;-79
2021/08/20 08:59:44;;;;;;;5.47;4.65;;;20.90;99.90;;;;;;4982460;28;20223;-77
2021/08/20 09:02:22;;;;;;;5.75;4.45;;;20.90;99.90;;;;;;4983202;28;20187;-78
2021/08/20 09:04:58;;;;;;;4.00;3.60;;;21.00;99.90;;;;;;4984552;28;20179;-80
2021/08/20 09:07:24;;;;;;;4.85;4.25;;;21.20;99.90;;;;;;4984052;28;20183;-78
2021/08/20 09:10:16;;;;;;;5.57;4.20;;;21.20;99.90;;;;;;4982029;28;20180;-79
2021/08/20 09:13:02;;;;;;;5.10;3.78;;;21.30;99.90;;;;;;4981858;28;20197;-80
2021/08/20 09:15:32;;;;;;;4.47;3.53;;;21.60;99.90;;;;;;4984044;28;20206;-78
2021/08/20 09:18:02;;;;;;;5.32;3.90;;;21.90;99.90;;;;;;4971598;28;20620;-78
2021/08/20 09:20:29;;;;;;;5.75;4.00;;;22.10;99.90;;;;;;4982801;28;20207;-77
2021/08/20 09:22:58;;;;;;;6.20;3.75;;;22.20;99.90;;;;;;4990523;28;20231;-78
2021/08/20 09:25:44;;;;;;;4.82;3.95;;;22.40;99.90;;;;;;4990735;28;20218;-79
2021/08/20 09:28:31;;;;;;;3.90;3.50;;;22.40;99.90;;;;;;4991936;28;20211;-77
2021/08/20 09:31:04;;;;;;;5.35;4.40;;;22.40;99.90;;;;;;4988579;28;20312;-78
2021/08/20 09:33:37;;;;;;;5.43;4.30;;;22.30;99.90;;;;;;4983154;28;20191;-79
2021/08/20 09:36:11;;;;;;;6.35;4.13;;;22.20;99.90;;;;;;4989906;28;20206;-78
2021/08/20 09:38:55;;;;;;;5.18;4.03;;;22.30;99.90;;;;;;4990452;28;20200;-79
2021/08/20 09:41:41;;;;;;;4.10;3.70;;;22.10;99.90;;;;;;4988807;28;20211;-78
2021/08/20 09:44:08;;;;;;;4.82;4.03;;;21.60;99.90;;;;;;4988931;28;20196;-79
2021/08/20 09:46:45;;;;;;;5.30;4.22;;;21.70;99.90;;;;;;4988422;28;21125;-77
2021/08/20 09:49:13;;;;;;;4.88;3.65;;;21.90;99.90;;;;;;4993031;28;20199;-79
2021/08/20 09:51:43;;;;;;;4.20;3.53;;;22.20;99.90;;;;;;4992065;28;20204;-80
2021/08/20 09:54:26;;;;;;;5.05;4.03;;;22.30;99.90;;;;;;4980659;28;20275;-79
2021/08/20 09:56:52;;;;;;;4.43;3.40;;;22.40;99.90;;;;;;4971643;28;20187;-79
2021/08/20 09:59:18;;;;;;;3.50;3.20;;;22.00;99.90;;;;;;4980102;28;20204;-79
2021/08/20 10:01:46;;;;;;;3.75;3.10;;;22.00;99.90;;;;;;4987100;28;20246;-80
2021/08/20 10:04:14;;;;;;;4.30;3.90;;;22.20;99.90;;;;;;4975971;28;20250;-79
2021/08/20 10:06:48;;;;;;;4.38;3.63;;;22.70;99.90;;;;;;4984790;28;20701;-80
2021/08/20 10:09:16;;;;;;;5.18;4.20;;;23.40;99.90;;;;;;4984217;28;20223;-81
2021/08/20 10:11:47;;;;;;;4.63;4.00;;;23.60;99.90;;;;;;4979616;28;20211;-79
2021/08/20 10:14:14;;;;;;;4.35;3.53;;;23.60;99.90;;;;;;4979775;28;20195;-79
2021/08/20 10:16:41;;;;;;;4.70;3.95;;;23.50;99.90;;;;;;4983141;28;20200;-80
2021/08/20 10:19:09;;;;;;;4.97;3.33;;;23.30;99.90;;;;;;4979635;28;20208;-79
2021/08/20 10:21:41;;;;;;;5.20;3.58;;;23.30;99.90;;;;;;4986763;28;20670;-79
2021/08/20 10:24:09;;;;;;;3.45;3.15;;;23.60;99.90;;;;;;4987863;28;20192;-81
2021/08/20 10:26:47;;;;;;;5.60;4.32;;;23.80;99.90;;;;;;4991004;28;20577;-80
2021/08/20 10:29:14;;;;;;;4.25;3.00;;;23.60;99.90;;;;;;4984816;28;20282;-80
2021/08/20 10:31:43;;;;;;;4.43;3.55;;;23.30;99.90;;;;;;4986369;28;20682;-80
2021/08/20 10:34:39;;;;;;;5.45;3.90;;;23.20;99.90;;;;;;4871064;28;20261;-81
2021/08/20 10:37:30;;;;;;;3.97;3.25;;;22.70;99.90;;;;;;4967292;28;20702;-80
2021/08/20 10:40:20;;;;;;;3.83;3.35;;;22.30;99.90;;;;;;4968227;28;20185;-81
2021/08/20 10:42:48;;;;;;;4.22;2.92;;;22.10;99.90;;;;;;4969206;28;20226;-81
2021/08/20 10:45:13;;;;;;;4.10;3.40;;;21.90;99.90;;;;;;4959625;28;20193;-80
2021/08/20 10:47:40;;;;;;;4.10;3.70;;;21.60;99.90;;;;;;4957833;28;20184;-81
2021/08/20 10:50:07;;;;;;;3.85;2.92;;;21.60;99.90;;;;;;4969696;28;20281;-78
2021/08/20 10:52:35;;;;;;;3.88;3.47;;;21.70;99.90;;;;;;4974996;28;20311;-81
2021/08/20 10:55:02;;;;;;;5.28;4.35;;;21.90;99.90;;;;;;4970391;28;20446;-81
2021/08/20 10:57:34;;;;;;;4.00;2.95;;;21.90;99.90;;;;;;4985269;28;20726;-76
2021/08/20 11:00:02;;;;;;;5.45;3.92;;;22.20;99.90;;;;;;4972515;28;20572;-79
2021/08/20 11:02:31;;;;;;;4.22;3.38;;;22.40;99.90;;;;;;4967528;28;20193;-79
2021/08/20 11:05:00;;;;;;;3.85;3.10;;;22.50;99.90;;;;;;4966533;28;20271;-78
2021/08/20 11:07:34;;;;;;;3.67;3.28;;;22.70;99.90;;;;;;4965053;28;20184;-78
2021/08/20 11:10:20;;;;;;;4.45;3.67;;;22.80;99.90;;;;;;4971507;28;20242;-78
2021/08/20 11:12:55;;;;;;;5.13;3.90;;;22.70;99.90;;;;;;4967349;28;20192;-77
2021/08/20 11:15:23;;;;;;;4.22;3.40;;;22.80;99.90;;;;;;4967992;28;20223;-78
2021/08/20 11:17:59;;;;;;;5.97;4.43;;;22.70;99.90;;;;;;4966012;28;20201;-77
2021/08/20 11:20:37;;;;;;;4.63;3.63;;;22.90;99.90;;;;;;4965095;28;20204;-79
2021/08/20 11:23:06;;;;;;;3.60;3.10;;;22.90;99.90;;;;;;4966308;28;20193;-78
2021/08/20 11:25:44;;;;;;;4.07;3.55;;;22.70;99.90;;;;;;4964949;28;20189;-77
2021/08/20 11:28:24;;;;;;;5.05;3.13;;;22.70;99.90;;;;;;4964505;28;20988;-77
2021/08/20 11:31:06;;;;;;;3.33;2.97;;;23.10;99.90;;;;;;4964733;28;20197;-78
2021/08/20 11:33:32;;;;;;;4.28;3.45;;;23.20;99.90;;;;;;4966990;28;20189;-78
2021/08/20 11:36:17;;;;;;;4.30;3.78;;;23.10;99.90;;;;;;4965445;28;20197;-78
2021/08/20 11:38:45;;;;;;;4.15;3.63;;;23.20;99.90;;;;;;4967106;28;20602;-78
2021/08/20 11:41:24;;;;;;;3.95;3.55;;;23.70;99.90;;;;;;4966673;28;20184;-79
2021/08/20 11:43:56;;;;;;;4.60;3.58;;;24.00;99.90;;;;;;4974689;28;20187;-77
2021/08/20 11:46:30;;;;;;;3.92;3.40;;;24.20;99.90;;;;;;4967537;28;20200;-77
2021/08/20 11:48:58;;;;;;;3.70;2.88;;;24.40;99.90;;;;;;4968929;28;20213;-78
2021/08/20 11:51:31;;;;;;;3.40;3.08;;;24.40;99.90;;;;;;4960896;28;20698;-78
2021/08/20 11:53:59;;;;;;;2.90;2.65;;;24.30;99.90;;;;;;4959641;28;20276;-77
2021/08/20 11:56:26;;;;;;;4.07;2.60;;;24.10;99.90;;;;;;4968814;28;20292;-77
2021/08/20 11:58:52;;;;;;;2.88;2.58;;;24.20;99.90;;;;;;4982762;28;20208;-77
2021/08/20 12:01:25;;;;;;;2.63;2.42;;;24.30;99.90;;;;;;4965892;28;20185;-78
2021/08/20 12:03:54;;;;;;;2.38;2.17;;;24.50;99.90;;;;;;4969185;28;20173;-77
2021/08/20 12:06:20;;;;;;;2.65;2.42;;;24.60;99.90;;;;;;4957214;28;20193;-77
2021/08/20 12:08:47;;;;;;;3.67;3.30;;;24.10;99.90;;;;;;4963823;28;20223;-78
2021/08/20 12:11:13;;;;;;;3.05;2.40;;;24.00;99.90;;;;;;4966817;28;20200;-78
2021/08/20 12:13:47;;;;;;;2.58;2.35;;;23.70;99.90;;;;;;4975763;28;20247;-78
2021/08/20 12:16:34;;;;;;;2.75;2.50;;;23.50;99.90;;;;;;4966728;28;20189;-79
2021/08/20 12:19:17;;;;;;;3.20;2.38;;;23.40;99.90;;;;;;4965981;28;20652;-77
2021/08/20 12:21:46;;;;;;;3.08;2.35;;;23.30;99.90;;;;;;4965859;28;20193;-77
2021/08/20 12:24:13;;;;;;;2.67;2.22;;;23.40;99.90;;;;;;4966348;28;20212;-78
2021/08/20 12:26:39;;;;;;;3.38;2.38;;;23.50;99.90;;;;;;4965620;28;20207;-78
2021/08/20 12:29:16;;;;;;;2.40;2.20;;;23.70;99.90;;;;;;4965331;28;20213;-77
2021/08/20 12:31:54;;;;;;;2.85;2.55;;;23.60;99.90;;;;;;4966064;28;20549;-78
2021/08/20 12:34:26;;;;;;;3.45;2.28;;;23.70;99.90;;;;;;4965133;28;20204;-78
2021/08/20 12:36:56;;;;;;;4.90;2.20;;;23.90;99.90;;;;;;4972591;28;20675;-78
2021/08/20 12:39:36;;;;;;;3.05;2.75;;;23.80;99.90;;;;;;4965584;28;20212;-78
2021/08/20 12:42:20;;;;;;;2.70;2.28;;;23.60;99.90;;;;;;4966495;28;20251;-78
2021/08/20 12:44:46;;;;;;;3.28;2.47;;;23.70;99.90;;;;;;4981114;28;20192;-78
2021/08/20 12:47:12;;;;;;;3.10;2.60;;;23.60;99.90;;;;;;4966312;28;20196;-78
2021/08/20 12:50:14;;;;;;;3.22;2.38;;;23.60;99.90;;;;;;4959639;28;20592;-78